createdAt,value
2023-02-11T00:02:33.145Z,-3.03
2023-02-11T00:05:34.978Z,-3.00
2023-02-11T00:08:36.846Z,-3.00
2023-02-11T00:11:38.321Z,-3.02
2023-02-11T00:14:39.794Z,-3.05
2023-02-11T00:17:41.353Z,-3.10
2023-02-11T00:20:43.902Z,-3.16
2023-02-11T00:23:46.399Z,-3.20
2023-02-11T00:26:47.876Z,-3.23
2023-02-11T00:29:49.405Z,-3.23
2023-02-11T00:32:50.921Z,-3.21
2023-02-11T00:35:52.818Z,-3.22
2023-02-11T00:38:56.642Z,-3.23
2023-02-11T00:41:58.876Z,-3.22
2023-02-11T00:45:00.338Z,-3.32
2023-02-11T00:48:01.959Z,-3.24
2023-02-11T00:51:11.640Z,-3.22
2023-02-11T00:54:13.193Z,-3.30
2023-02-11T00:57:14.696Z,-3.37
2023-02-11T01:00:16.671Z,-3.39
2023-02-11T01:03:19.564Z,-3.40
2023-02-11T01:06:21.127Z,-3.40
2023-02-11T01:09:22.704Z,-3.42
2023-02-11T01:12:24.560Z,-3.35
2023-02-11T01:15:26.111Z,-3.34
2023-02-11T01:18:27.867Z,-3.35
2023-02-11T01:21:29.316Z,-3.43
2023-02-11T01:24:30.896Z,-3.49
2023-02-11T01:27:32.561Z,-3.51
2023-02-11T01:30:34.032Z,-3.58
2023-02-11T01:33:35.494Z,-3.56
2023-02-11T01:36:37.235Z,-3.55
2023-02-11T01:39:38.847Z,-3.57
2023-02-11T01:42:40.383Z,-3.53
2023-02-11T01:45:56.005Z,-3.50
2023-02-11T01:49:04.646Z,-3.50
2023-02-11T01:52:15.077Z,-3.50
2023-02-11T01:55:35.232Z,-3.53
2023-02-11T01:58:41.066Z,-3.47
2023-02-11T02:01:49.602Z,-3.43
2023-02-11T02:05:08.040Z,-3.44
2023-02-11T02:08:36.060Z,-3.44
2023-02-11T02:11:37.882Z,-3.49
2023-02-11T02:14:42.422Z,-3.56
2023-02-11T02:17:53.993Z,-3.67
2023-02-11T02:21:16.941Z,-3.65
2023-02-11T02:24:56.610Z,-3.59
2023-02-11T02:28:19.757Z,-3.59
2023-02-11T02:31:36.578Z,-3.62
2023-02-11T02:34:59.901Z,-3.64
2023-02-11T02:38:08.564Z,-3.66
2023-02-11T02:41:13.815Z,-3.64
2023-02-11T02:44:15.284Z,-3.67
2023-02-11T02:47:16.900Z,-3.63
2023-02-11T02:50:26.338Z,-3.62
2023-02-11T02:53:39.826Z,-3.61
2023-02-11T02:57:09.037Z,-3.63
2023-02-11T03:00:26.590Z,-3.66
2023-02-11T03:03:34.018Z,-3.66
2023-02-11T03:07:00.405Z,-3.67
2023-02-11T03:10:07.880Z,-3.69
2023-02-11T03:13:10.146Z,-3.70
2023-02-11T03:16:17.170Z,-3.72
2023-02-11T03:19:22.685Z,-3.70
2023-02-11T03:23:02.094Z,-3.67
2023-02-11T03:26:17.877Z,-3.69
2023-02-11T03:29:36.084Z,-3.58
2023-02-11T03:32:49.910Z,-3.56
2023-02-11T03:36:00.324Z,-3.53
2023-02-11T03:39:04.798Z,-3.57
2023-02-11T03:42:10.672Z,-3.57
2023-02-11T03:45:15.755Z,-3.64
2023-02-11T03:48:25.182Z,-3.66
2023-02-11T03:51:29.331Z,-3.67
2023-02-11T03:54:31.227Z,-3.75
2023-02-11T03:57:34.628Z,-3.76
2023-02-11T04:00:39.737Z,-3.71
2023-02-11T04:03:41.342Z,-3.67
2023-02-11T04:06:43.351Z,-3.73
2023-02-11T04:09:44.825Z,-3.75
2023-02-11T04:12:46.355Z,-3.65
2023-02-11T04:15:48.943Z,-3.64
2023-02-11T04:18:50.575Z,-3.68
2023-02-11T04:21:52.067Z,-3.75
2023-02-11T04:24:53.508Z,-3.74
2023-02-11T04:27:55.103Z,-3.67
2023-02-11T04:30:57.331Z,-3.72
2023-02-11T04:33:58.785Z,-3.74
2023-02-11T04:37:00.282Z,-3.79
2023-02-11T04:40:01.849Z,-3.79
2023-02-11T04:43:03.411Z,-3.79
2023-02-11T04:46:05.159Z,-3.81
2023-02-11T04:49:06.663Z,-3.81
2023-02-11T04:52:08.593Z,-3.78
2023-02-11T04:55:10.171Z,-3.81
2023-02-11T04:58:11.674Z,-3.79
2023-02-11T05:01:15.652Z,-3.78
2023-02-11T05:04:17.274Z,-3.77
2023-02-11T05:07:18.797Z,-3.83
2023-02-11T05:10:20.275Z,-3.81
2023-02-11T05:13:22.192Z,-3.84
2023-02-11T05:16:24.163Z,-3.85
2023-02-11T05:19:25.713Z,-3.84
2023-02-11T05:22:27.190Z,-3.85
2023-02-11T05:25:28.660Z,-3.82
2023-02-11T05:28:30.185Z,-3.80
2023-02-11T05:31:32.751Z,-3.74
2023-02-11T05:34:34.978Z,-3.76
2023-02-11T05:37:36.603Z,-3.73
2023-02-11T05:40:38.057Z,-3.75
2023-02-11T05:43:39.728Z,-3.71
2023-02-11T05:46:41.239Z,-3.79
2023-02-11T05:49:42.809Z,-3.83
2023-02-11T05:52:44.402Z,-3.80
2023-02-11T05:55:46.064Z,-3.76
2023-02-11T05:58:47.612Z,-3.77
2023-02-11T06:01:49.089Z,-3.75
2023-02-11T06:04:50.531Z,-3.70
2023-02-11T06:07:52.386Z,-3.65
2023-02-11T06:10:53.834Z,-3.58
2023-02-11T06:13:55.376Z,-3.55
2023-02-11T06:16:56.814Z,-3.53
2023-02-11T06:19:58.399Z,-3.53
2023-02-11T06:23:00.162Z,-3.51
2023-02-11T06:26:03.410Z,-3.49
2023-02-11T06:29:04.987Z,-3.49
2023-02-11T06:32:06.702Z,-3.44
2023-02-11T06:35:11.775Z,-3.42
2023-02-11T06:38:13.651Z,-3.45
2023-02-11T06:41:17.121Z,-3.46
2023-02-11T06:44:18.561Z,-3.40
2023-02-11T06:47:20.077Z,-3.45
2023-02-11T06:50:21.701Z,-3.45
2023-02-11T06:53:23.149Z,-3.39
2023-02-11T06:56:27.264Z,-3.34
2023-02-11T06:59:28.728Z,-3.36
2023-02-11T07:02:30.286Z,-3.38
2023-02-11T07:05:34.139Z,-3.44
2023-02-11T07:08:37.531Z,-3.36
2023-02-11T07:11:39.213Z,-3.30
2023-02-11T07:14:40.708Z,-3.16
2023-02-11T07:17:42.223Z,-3.06
2023-02-11T07:20:43.845Z,-2.83
2023-02-11T07:23:45.750Z,-2.66
2023-02-11T07:26:47.276Z,-2.47
2023-02-11T07:29:48.730Z,-2.28
2023-02-11T07:32:50.274Z,-2.10
2023-02-11T07:35:52.054Z,-1.91
2023-02-11T07:38:53.801Z,-1.75
2023-02-11T07:41:55.427Z,-1.67
2023-02-11T07:44:57.624Z,-1.62
2023-02-11T07:47:59.113Z,-1.63
2023-02-11T07:51:15.598Z,-1.64
2023-02-11T07:54:17.531Z,-1.54
2023-02-11T07:57:19.131Z,-1.38
2023-02-11T08:00:21.278Z,-1.04
2023-02-11T08:03:22.874Z,-0.74
2023-02-11T08:06:26.732Z,-0.53
2023-02-11T08:09:28.279Z,-0.46
2023-02-11T08:12:30.269Z,-0.34
2023-02-11T08:15:31.743Z,-0.23
2023-02-11T08:18:34.660Z,-0.11
2023-02-11T08:21:36.382Z,-0.06
2023-02-11T08:24:37.992Z,0.11
2023-02-11T08:27:39.483Z,0.23
2023-02-11T08:30:40.946Z,0.36
2023-02-11T08:33:42.476Z,0.48
2023-02-11T08:36:44.924Z,0.57
2023-02-11T08:39:47.385Z,0.62
2023-02-11T08:42:49.051Z,0.73
2023-02-11T08:45:50.937Z,0.82
2023-02-11T08:48:53.216Z,0.91
2023-02-11T08:51:56.227Z,1.07
2023-02-11T08:54:57.754Z,1.26
2023-02-11T08:57:59.307Z,1.45
2023-02-11T09:01:01.023Z,1.48
2023-02-11T09:04:02.626Z,1.55
2023-02-11T09:07:04.744Z,1.58
2023-02-11T09:10:06.626Z,1.58
2023-02-11T09:13:08.634Z,1.64
2023-02-11T09:16:20.991Z,1.74
2023-02-11T09:19:23.214Z,1.76
2023-02-11T09:22:24.786Z,1.77
2023-02-11T09:25:26.784Z,1.76
2023-02-11T09:28:28.364Z,1.84
2023-02-11T09:31:32.331Z,1.88
2023-02-11T09:34:33.902Z,2.04
2023-02-11T09:37:37.339Z,2.17
2023-02-11T09:40:43.876Z,2.27
2023-02-11T09:43:48.120Z,2.30
2023-02-11T09:46:56.567Z,2.37
2023-02-11T09:50:10.501Z,2.43
2023-02-11T09:53:22.095Z,2.59
2023-02-11T09:56:24.962Z,2.65
2023-02-11T09:59:26.573Z,2.73
2023-02-11T10:02:50.115Z,2.75
2023-02-11T10:06:20.055Z,2.82
2023-02-11T10:09:42.870Z,2.94
2023-02-11T10:13:01.704Z,3.00
2023-02-11T10:16:09.377Z,3.10
2023-02-11T10:19:16.689Z,3.24
2023-02-11T10:22:46.077Z,3.39
2023-02-11T10:25:52.871Z,3.50
2023-02-11T10:28:55.932Z,3.62
2023-02-11T10:32:00.520Z,3.72
2023-02-11T10:35:10.179Z,3.88
2023-02-11T10:38:12.057Z,4.01
2023-02-11T10:41:19.076Z,4.13
2023-02-11T10:44:28.831Z,4.20
2023-02-11T10:47:37.461Z,4.40
2023-02-11T10:50:38.944Z,4.53
2023-02-11T10:53:40.488Z,4.64
2023-02-11T10:56:50.221Z,4.75
2023-02-11T10:59:59.236Z,4.87
2023-02-11T11:03:04.861Z,4.89
2023-02-11T11:06:11.517Z,4.89
2023-02-11T11:09:30.261Z,5.08
2023-02-11T11:12:42.150Z,5.33
2023-02-11T11:15:44.054Z,5.43
2023-02-11T11:18:47.822Z,5.49
2023-02-11T11:21:54.596Z,5.67
2023-02-11T11:24:57.424Z,5.74
2023-02-11T11:28:01.027Z,5.86
2023-02-11T11:31:02.813Z,5.94
2023-02-11T11:34:26.954Z,6.04
2023-02-11T11:37:38.826Z,6.01
2023-02-11T11:40:40.288Z,6.00
2023-02-11T11:43:54.497Z,6.07
2023-02-11T11:47:15.746Z,6.12
2023-02-11T11:50:27.678Z,6.18
2023-02-11T11:53:50.607Z,6.32
2023-02-11T11:57:03.236Z,6.39
2023-02-11T12:00:05.356Z,6.41
2023-02-11T12:03:51.986Z,6.32
2023-02-11T12:07:04.967Z,6.33
2023-02-11T12:10:30.068Z,6.34
2023-02-11T12:13:50.466Z,6.45
2023-02-11T12:17:16.276Z,6.59
2023-02-11T12:20:55.463Z,6.53
2023-02-11T12:24:29.562Z,6.54
2023-02-11T12:27:56.926Z,6.74
2023-02-11T12:31:23.806Z,6.89
2023-02-11T12:34:37.521Z,7.03
2023-02-11T12:37:58.870Z,7.24
2023-02-11T12:41:14.685Z,7.37
2023-02-11T12:44:31.050Z,7.51
2023-02-11T12:47:53.194Z,7.51
2023-02-11T12:51:08.640Z,7.54
2023-02-11T12:54:10.074Z,7.39
2023-02-11T12:57:20.111Z,7.28
2023-02-11T13:00:31.182Z,7.43
2023-02-11T13:03:48.392Z,7.52
2023-02-11T13:06:57.360Z,7.56
2023-02-11T13:10:07.624Z,7.61
2023-02-11T13:13:46.568Z,7.62
2023-02-11T13:16:50.601Z,7.74
2023-02-11T13:19:59.018Z,7.75
2023-02-11T13:23:14.112Z,7.64
2023-02-11T13:26:33.580Z,7.76
2023-02-11T13:30:23.367Z,7.77
2023-02-11T13:33:45.899Z,7.71
2023-02-11T13:36:55.740Z,7.77
2023-02-11T13:40:04.235Z,7.84
2023-02-11T13:43:21.770Z,7.89
2023-02-11T13:46:23.605Z,8.00
2023-02-11T13:49:36.204Z,8.10
2023-02-11T13:52:39.146Z,8.07
2023-02-11T13:55:45.013Z,8.00
2023-02-11T13:58:48.303Z,8.01
2023-02-11T14:02:12.813Z,8.01
2023-02-11T14:05:48.743Z,7.90
2023-02-11T14:09:13.286Z,7.98
2023-02-11T14:12:31.497Z,8.07
2023-02-11T14:15:40.182Z,7.94
2023-02-11T14:18:44.543Z,8.02
2023-02-11T14:21:47.013Z,8.06
2023-02-11T14:25:00.996Z,8.20
2023-02-11T14:28:23.219Z,8.05
2023-02-11T14:31:31.753Z,8.09
2023-02-11T14:34:51.567Z,8.38
2023-02-11T14:38:19.061Z,8.45
2023-02-11T14:41:25.004Z,8.51
2023-02-11T14:44:30.112Z,8.46
2023-02-11T14:47:45.009Z,8.37
2023-02-11T14:50:51.983Z,8.53
2023-02-11T14:54:00.556Z,8.83
2023-02-11T14:57:19.227Z,9.36
2023-02-11T15:00:22.636Z,9.41
2023-02-11T15:03:38.780Z,9.06
2023-02-11T15:06:45.085Z,8.78
2023-02-11T15:09:50.459Z,8.64
2023-02-11T15:12:53.496Z,8.51
2023-02-11T15:16:00.057Z,8.40
2023-02-11T15:19:07.109Z,8.29
2023-02-11T15:22:18.776Z,8.19
2023-02-11T15:25:21.323Z,8.15
2023-02-11T15:28:26.926Z,8.04
2023-02-11T15:31:29.349Z,8.02
2023-02-11T15:34:32.303Z,8.01
2023-02-11T15:37:33.756Z,8.12
2023-02-11T15:40:37.265Z,8.47
2023-02-11T15:43:47.906Z,8.56
2023-02-11T15:46:49.509Z,8.59
2023-02-11T15:49:51.301Z,8.41
2023-02-11T15:52:53.762Z,8.10
2023-02-11T15:56:19.994Z,7.89
2023-02-11T15:59:38.277Z,7.76
2023-02-11T16:02:45.109Z,7.61
2023-02-11T16:05:46.639Z,7.48
2023-02-11T16:09:21.858Z,7.32
2023-02-11T16:12:27.082Z,7.18
2023-02-11T16:15:34.628Z,6.93
2023-02-11T16:18:40.183Z,6.55
2023-02-11T16:21:45.251Z,6.14
2023-02-11T16:24:49.669Z,5.79
2023-02-11T16:27:53.252Z,5.49
2023-02-11T16:30:56.179Z,5.27
2023-02-11T16:33:57.761Z,5.09
2023-02-11T16:36:59.285Z,4.90
2023-02-11T16:40:00.860Z,4.69
2023-02-11T16:43:02.362Z,4.50
2023-02-11T16:46:04.512Z,4.15
2023-02-11T16:49:31.294Z,3.77
2023-02-11T16:52:33.480Z,3.58
2023-02-11T16:55:35.139Z,3.35
2023-02-11T16:58:36.655Z,3.23
2023-02-11T17:01:40.500Z,3.19
2023-02-11T17:04:42.681Z,3.14
2023-02-11T17:07:44.302Z,3.15
2023-02-11T17:10:46.299Z,3.10
2023-02-11T17:13:48.719Z,3.00
2023-02-11T17:16:50.597Z,2.91
2023-02-11T17:19:52.188Z,2.72
2023-02-11T17:22:54.530Z,2.57
2023-02-11T17:25:56.905Z,2.41
2023-02-11T17:28:58.602Z,2.25
2023-02-11T17:32:00.379Z,2.06
2023-02-11T17:35:02.050Z,2.02
2023-02-11T17:38:03.810Z,1.98
2023-02-11T17:41:05.464Z,1.91
2023-02-11T17:44:07.947Z,1.84
2023-02-11T17:47:09.578Z,1.80
2023-02-11T17:50:11.299Z,1.70
2023-02-11T17:53:13.972Z,1.66
2023-02-11T17:56:16.210Z,1.57
2023-02-11T17:59:17.824Z,1.50
2023-02-11T18:02:19.504Z,1.40
2023-02-11T18:05:21.096Z,1.28
2023-02-11T18:08:22.539Z,1.18
2023-02-11T18:11:25.241Z,1.13
2023-02-11T18:14:27.266Z,1.12
2023-02-11T18:17:29.229Z,1.09
2023-02-11T18:20:31.282Z,1.03
2023-02-11T18:23:32.811Z,0.98
2023-02-11T18:26:35.420Z,0.94
2023-02-11T18:29:37.053Z,0.85
2023-02-11T18:32:38.564Z,0.78
2023-02-11T18:35:41.365Z,0.73
2023-02-11T18:38:45.995Z,0.72
2023-02-11T18:41:47.555Z,0.79
2023-02-11T18:44:49.110Z,0.87
2023-02-11T18:47:50.607Z,0.91
2023-02-11T18:50:52.278Z,0.84
2023-02-11T18:53:54.666Z,0.79
2023-02-11T18:56:57.302Z,0.72
2023-02-11T18:59:58.871Z,0.61
2023-02-11T19:03:00.381Z,0.48
2023-02-11T19:06:02.053Z,0.36
2023-02-11T19:09:09.861Z,0.29
2023-02-11T19:12:11.945Z,0.27
2023-02-11T19:18:39.613Z,0.31
2023-02-11T19:21:43.627Z,0.22
2023-02-11T19:24:46.325Z,0.08
2023-02-11T19:27:47.882Z,-0.01
2023-02-11T19:30:49.430Z,-0.04
2023-02-11T19:33:51.564Z,-0.03
2023-02-11T19:36:54.248Z,-0.07
2023-02-11T19:39:55.932Z,-0.14
2023-02-11T19:42:57.512Z,-0.17
2023-02-11T19:46:01.555Z,-0.22
2023-02-11T19:49:04.565Z,-0.30
2023-02-11T19:52:06.022Z,-0.45
2023-02-11T19:55:08.173Z,-0.46
2023-02-11T19:58:09.784Z,-0.45
2023-02-11T20:01:12.870Z,-0.49
2023-02-11T20:04:15.897Z,-0.57
2023-02-11T20:07:17.453Z,-0.60
2023-02-11T20:10:19.000Z,-0.52
2023-02-11T20:13:20.591Z,-0.48
2023-02-11T20:16:36.819Z,-0.47
2023-02-11T20:19:46.312Z,-0.62
2023-02-11T20:22:47.750Z,-0.63
2023-02-11T20:25:49.421Z,-0.70
2023-02-11T20:28:53.211Z,-0.67
2023-02-11T20:31:54.936Z,-0.69
2023-02-11T20:34:56.636Z,-0.76
2023-02-11T20:37:58.080Z,-0.72
2023-02-11T20:41:24.637Z,-0.70
2023-02-11T20:44:27.459Z,-0.73
2023-02-11T20:47:39.073Z,-0.69
2023-02-11T20:50:40.727Z,-0.69
2023-02-11T20:53:47.893Z,-0.67
2023-02-11T20:56:53.601Z,-0.63
2023-02-11T20:59:55.218Z,-0.71
2023-02-11T21:02:56.899Z,-0.75
2023-02-11T21:05:59.075Z,-0.75
2023-02-11T21:09:00.919Z,-0.70
2023-02-11T21:12:03.079Z,-0.72
2023-02-11T21:15:12.661Z,-0.74
2023-02-11T21:18:14.356Z,-0.79
2023-02-11T21:21:17.070Z,-0.77
2023-02-11T21:24:18.608Z,-0.81
2023-02-11T21:27:20.063Z,-0.88
2023-02-11T21:30:21.619Z,-0.90
2023-02-11T21:33:24.838Z,-0.89
2023-02-11T21:36:28.963Z,-0.92
2023-02-11T21:39:37.364Z,-1.07
2023-02-11T21:42:38.950Z,-1.13
2023-02-11T21:45:46.924Z,-1.08
2023-02-11T21:48:53.650Z,-1.08
2023-02-11T21:51:55.204Z,-1.07
2023-02-11T21:54:58.681Z,-1.18
2023-02-11T21:58:01.550Z,-1.23
2023-02-11T22:01:20.219Z,-1.26
2023-02-11T22:04:21.731Z,-1.34
2023-02-11T22:07:24.317Z,-1.34
2023-02-11T22:10:25.805Z,-1.29
2023-02-11T22:13:28.048Z,-1.30
2023-02-11T22:16:29.972Z,-1.31
2023-02-11T22:19:34.454Z,-1.39
2023-02-11T22:22:36.360Z,-1.37
2023-02-11T22:25:38.008Z,-1.43
2023-02-11T22:28:40.926Z,-1.48
2023-02-11T22:31:42.948Z,-1.45
2023-02-11T22:34:44.720Z,-1.50
2023-02-11T22:37:46.706Z,-1.55
2023-02-11T22:40:48.552Z,-1.56
2023-02-11T22:43:50.623Z,-1.61
2023-02-11T22:46:53.947Z,-1.60
2023-02-11T22:49:56.379Z,-1.65
2023-02-11T22:52:58.085Z,-1.69
2023-02-11T22:56:08.563Z,-1.72
2023-02-11T22:59:15.873Z,-1.75
2023-02-11T23:02:17.690Z,-1.79
2023-02-11T23:05:19.588Z,-1.77
2023-02-11T23:08:21.131Z,-1.78
2023-02-11T23:11:25.349Z,-1.81
2023-02-11T23:14:26.845Z,-1.91
2023-02-11T23:17:29.123Z,-1.88
2023-02-11T23:20:30.795Z,-1.86
2023-02-11T23:23:32.919Z,-1.91
2023-02-11T23:26:35.126Z,-1.89
2023-02-11T23:29:36.773Z,-1.94
2023-02-11T23:32:39.286Z,-2.01
2023-02-11T23:35:40.988Z,-1.99
2023-02-11T23:38:42.979Z,-2.04
2023-02-11T23:41:45.386Z,-2.03
2023-02-11T23:44:46.909Z,-2.01
2023-02-11T23:47:48.558Z,-1.96
2023-02-11T23:50:50.196Z,-1.96
2023-02-11T23:53:53.020Z,-2.02
2023-02-11T23:56:55.183Z,-2.04
2023-02-11T23:59:57.449Z,-2.13
